Terminal Aerodrome Forecast
Issued by NWS Northern Indiana

Home | Current Version | Previous Version | Text Only | Print | Product List | Glossary On
Versions: 1 2 3 4 5 6 7 8 9 10 11 12 13 14 15 16
000
FTUS43 KIWX 242300
TAFFWA
TAF
KFWA 242335Z 2500/2524 13006KT P6SM BKN070
     FM250200 00000KT P6SM SKC
     FM251400 20008KT P6SM BKN200=

USA.gov is the U.S. government's official web portal to all federal, state and local government web resources and services.